This is the latest recevied weather packets stored in our database for station/object BAGASKAR. If no packets are shown the sender has not sent any weather packets the latest 1 day(s).
| Time | Temp. | Humidity | Pressure | Rain* | Wind** | Luminosity | Snow |
|---|---|---|---|---|---|---|---|
| 1777988838 | 9.44° C | 76% | 1005.8 hPa | - | 9.39 m/s, 254° | - | - |
| 1777987638 | 10° C | 72% | 1005.7 hPa | - | 9.83 m/s, 258° | - | - |
| 1777986438 | 9.44° C | 79% | 1005.6 hPa | - | 10.73 m/s, 254° | - | - |
| 1777985238 | 9.44° C | 78% | 1005.4 hPa | - | 10.73 m/s, 253° | - | - |
| 1777984037 | 9.44° C | 78% | 1005.2 hPa | - | 9.83 m/s, 251° | - | - |
| 1777982837 | 10° C | 71% | 1005 hPa | - | 10.73 m/s, 252° | - | - |
| 1777981638 | 9.44° C | 81% | 1004.9 hPa | - | 10.73 m/s, 253° | - | - |
| 1777980438 | 9.44° C | 83% | 1004.7 hPa | - | 9.83 m/s, 253° | - | - |
| 1777979237 | 9.44° C | 91% | 1004.5 hPa | - | 10.28 m/s, 255° | - | - |
| 1777978037 | 10° C | 86% | 1004.2 hPa | - | 10.73 m/s, 254° | - | - |
| 1777976837 | 10° C | 83% | 1003.9 hPa | - | 9.83 m/s, 255° | - | - |
| 1777975637 | 11.11° C | 52% | 1003.7 hPa | - | 8.49 m/s, 279° | - | - |
| 1777974437 | 10° C | 79% | 1003.4 hPa | - | 8.94 m/s, 258° | - | - |
| 1777973237 | 9.44° C | 94% | 1003.2 hPa | - | 9.83 m/s, 255° | - | - |
| 1777972037 | 8.89° C | 100% | 1002.9 hPa | - | 10.73 m/s, 257° | - | - |
| 1777970838 | 8.33° C | 100% | 1002.7 hPa | - | 11.18 m/s, 250° | - | - |
| 1777969637 | 7.78° C | 100% | 1002.4 hPa | - | 11.18 m/s, 246° | - | - |
| 1777968437 | 8.33° C | 100% | 1002.3 hPa | - | 10.73 m/s, 248° | - | - |
| 1777967236 | 7.78° C | 100% | 1002.2 hPa | - | 11.18 m/s, 247° | - | - |
| 1777966037 | 7.78° C | 100% | 1002 hPa | - | 10.28 m/s, 251° | - | - |
| 1777964836 | 7.78° C | 100% | 1001.8 hPa | - | 10.28 m/s, 258° | - | - |
| 1777963636 | 7.78° C | 100% | 1001.7 hPa | - | 9.83 m/s, 257° | - | - |
| 1777962436 | 7.78° C | 100% | 1001.6 hPa | - | 9.39 m/s, 259° | - | - |
* Rain since midnight (hover to see other rain measurements)
** Current wind speed in m/s (hover to see current wind gust speed)